Terminal Aerodrome Forecast
Issued by NWS

Home | Current Version | Previous Version | Text Only | Print | Product List | Glossary Off
Versions: 1 2 3 4 5 6 7 8 9 10 11 12 13 14 15 16 17

000
FTUS43 KABR 222339
TAFMBG
TAF
KMBG 222339Z 2300/2324 31017G25KT P6SM SCT100
     FM230800 32016G24KT P6SM BKN040
     FM231400 32020G30KT P6SM SCT050=

USA.gov is the U.S. government's official web portal to all federal, state and local government web resources and services.